Juan Jose Paso, Argentina
Current Conditions -  °F | °C
As of 3:00 AM on Sunday 21 Dec 2014 (Local Time) from SAOC Reporting Station
Clear Clear  
Wind Chill: 57°   Ceiling: Unl
Heat Index: 57°   Visibility: 6mi
Dew Point: 41°   Wind: 8mph
Humidity: 55%   Direction: 230°SW
Pressure: 29.83"   Gusts: NA
Location:  35.83°S, 62.27°W
Report Text: SAOC 210600Z 23007KT CAVOK 14/05 Q1010
Loading
Personal Weather Stations






























Interactive Weather Map New forecast layout! Learn more

10-Day Weather Forecast

Advertisements
Track Severe Weather on mobile